Time;durP1;ratioP1;P1;durP2;ratioP2;P2;SDS_P1;SDS_P2;PMS_P1;PMS_P2;Temp;Humidity;BMP_temperature;BMP_pressure;BME280_temperature;BME280_humidity;BME280_pressure;Samples;Min_cycle;Max_cycle;Signal;HPM_P1;HPM_P2
2023/06/08 00:00:10;;;;;;;11.30;4.47;;;;;;;14.13;78.44;99649.84;5027960;28;20048;-36
2023/06/08 00:02:42;;;;;;;12.75;4.72;;;;;;;14.11;78.14;99659.56;5012472;28;20038;-37
2023/06/08 00:05:12;;;;;;;8.40;3.75;;;;;;;14.07;77.95;99655.41;5028758;28;20128;-35
2023/06/08 00:07:40;;;;;;;9.88;4.63;;;;;;;14.05;77.77;99661.63;5026309;28;20053;-36
2023/06/08 00:10:10;;;;;;;7.75;4.47;;;;;;;13.97;77.51;99657.59;5027586;28;20052;-36
2023/06/08 00:12:36;;;;;;;;;;;;;;;13.98;77.38;99658.44;5027645;28;20099;-36
2023/06/08 00:15:07;;;;;;;10.30;4.10;;;;;;;13.93;77.27;99658.69;5025836;28;19967;-36
2023/06/08 00:17:33;;;;;;;10.75;4.00;;;;;;;13.90;76.93;99664.06;5027320;28;20144;-36
2023/06/08 00:19:59;;;;;;;7.65;4.30;;;;;;;13.75;77.03;99641.28;5015836;28;20068;-36
2023/06/08 00:22:29;;;;;;;9.70;4.70;;;;;;;13.75;76.96;99632.59;5020404;28;20041;-36
2023/06/08 00:24:55;;;;;;;10.55;4.88;;;;;;;13.85;76.86;99662.59;5027814;28;20510;-36
2023/06/08 00:27:20;;;;;;;7.53;4.00;;;;;;;13.84;77.20;99661.75;5027683;28;20038;-36
2023/06/08 00:29:46;;;;;;;13.65;4.65;;;;;;;13.82;76.84;99658.34;5027594;28;20195;-36
2023/06/08 00:32:13;;;;;;;9.45;4.53;;;;;;;13.70;76.77;99645.88;5028894;28;20076;-36
2023/06/08 00:34:39;;;;;;;6.63;4.00;;;;;;;13.80;76.75;99662.81;5011018;28;20049;-35
2023/06/08 00:37:05;;;;;;;8.90;4.40;;;;;;;13.79;76.70;99668.09;5027429;28;20045;-36
2023/06/08 00:39:31;;;;;;;9.70;4.35;;;;;;;13.77;76.76;99664.72;5027224;28;20541;-37
2023/06/08 00:41:57;;;;;;;9.38;3.90;;;;;;;13.76;76.82;99669.13;5043830;28;20053;-35
2023/06/08 00:44:23;;;;;;;8.32;4.18;;;;;;;13.74;76.75;99664.88;5010548;28;20132;-35
2023/06/08 00:46:49;;;;;;;10.68;4.30;;;;;;;13.71;76.79;99668.44;5025667;28;20044;-35
2023/06/08 00:49:18;;;;;;;8.18;4.40;;;;;;;13.71;76.80;99667.63;4992729;28;20088;-35
2023/06/08 00:51:45;;;;;;;12.05;4.65;;;;;;;13.71;76.47;99667.63;5025865;28;20046;-36
2023/06/08 00:54:12;;;;;;;9.55;4.43;;;;;;;13.68;76.71;99671.22;4992760;28;20033;-35
2023/06/08 00:56:40;;;;;;;10.00;4.97;;;;;;;13.70;76.78;99673.78;5026321;28;20056;-36
2023/06/08 00:59:07;;;;;;;13.23;5.10;;;;;;;13.65;76.66;99674.00;5025969;28;20041;-35
2023/06/08 01:01:35;;;;;;;10.50;3.92;;;;;;;13.64;76.86;99672.28;5028157;28;20045;-36
2023/06/08 01:04:05;;;;;;;9.63;4.75;;;;;;;13.65;76.91;99680.97;5028220;28;20105;-36
2023/06/08 01:06:44;;;;;;;15.55;4.75;;;;;;;13.62;77.14;99684.56;5026868;28;20052;-35
2023/06/08 01:09:41;;;;;;;11.82;4.68;;;;;;;13.60;77.30;99686.44;5021422;28;20624;-35
2023/06/08 01:12:18;;;;;;;12.13;4.60;;;;;;;13.59;77.25;99687.34;5009497;28;20067;-37
2023/06/08 01:15:12;;;;;;;11.88;4.65;;;;;;;13.60;77.26;99696.88;5010591;28;20041;-35
2023/06/08 01:17:40;;;;;;;12.30;4.68;;;;;;;13.60;77.46;99693.41;5000028;28;20055;-37
2023/06/08 01:20:36;;;;;;;9.43;4.50;;;;;;;13.58;77.55;99696.09;5018078;28;20037;-36
2023/06/08 01:23:27;;;;;;;16.25;4.78;;;;;;;13.57;77.57;99691.78;5026803;28;20053;-36
2023/06/08 01:25:55;;;;;;;12.93;4.88;;;;;;;13.36;77.57;99651.81;5018730;28;20038;-35
2023/06/08 01:28:22;;;;;;;14.93;5.60;;;;;;;13.40;77.48;99669.03;5007243;28;20042;-36
2023/06/08 01:30:48;;;;;;;16.85;4.63;;;;;;;13.56;77.83;99690.06;5008417;28;20125;-36
2023/06/08 01:33:17;;;;;;;16.10;5.22;;;;;;;13.57;78.05;99694.38;5006978;28;20161;-36
2023/06/08 01:36:08;;;;;;;13.88;4.93;;;;;;;13.56;78.02;99696.16;5008371;28;20052;-35
2023/06/08 01:38:52;;;;;;;;;;;;;;;13.57;77.89;99699.63;5007090;28;20149;-35
2023/06/08 01:41:24;;;;;;;12.68;5.25;;;;;;;13.50;77.82;99693.81;5007085;28;19929;-35
2023/06/08 01:43:51;;;;;;;20.35;5.80;;;;;;;13.51;77.81;99697.28;5022300;28;20167;-35
2023/06/08 01:46:18;;;;;;;13.25;5.22;;;;;;;13.54;78.14;99702.38;5027784;28;20429;-35
2023/06/08 01:48:46;;;;;;;14.70;5.55;;;;;;;13.55;78.29;99701.47;5026647;28;20080;-35
2023/06/08 01:51:13;;;;;;;17.90;5.00;;;;;;;13.56;78.25;99695.31;5026760;28;20519;-35
2023/06/08 01:53:39;;;;;;;16.98;5.95;;;;;;;13.56;78.55;99695.31;5027716;28;20045;-35
2023/06/08 01:56:05;;;;;;;11.57;5.68;;;;;;;13.60;78.73;99696.88;5026229;28;20045;-35
2023/06/08 01:58:32;;;;;;;15.32;5.40;;;;;;;13.61;78.84;99706.38;5026572;28;20033;-35
2023/06/08 02:00:58;;;;;;;21.75;6.10;;;;;;;13.66;78.87;99701.78;5025974;28;20540;-36
2023/06/08 02:03:24;;;;;;;16.40;5.63;;;;;;;13.56;79.04;99687.47;5025770;28;20480;-35
2023/06/08 02:05:50;;;;;;;13.75;5.28;;;;;;;13.70;79.16;99703.38;5025879;28;20049;-35
2023/06/08 02:08:16;;;;;;;18.42;6.63;;;;;;;13.71;79.29;99707.66;5042630;28;20048;-35
2023/06/08 02:10:42;;;;;;;19.60;5.15;;;;;;;13.73;79.30;99710.19;5028449;28;20044;-35
2023/06/08 02:13:08;;;;;;;20.80;6.65;;;;;;;13.75;79.51;99716.22;5012752;28;20045;-35
2023/06/08 02:15:34;;;;;;;20.45;6.53;;;;;;;13.76;79.38;99715.31;5030132;28;20053;-35
2023/06/08 02:18:01;;;;;;;20.58;6.80;;;;;;;13.78;79.62;99716.06;5029981;28;20049;-35
2023/06/08 02:20:27;;;;;;;17.75;6.18;;;;;;;13.78;79.80;99703.84;5017592;28;20521;-35
2023/06/08 02:22:53;;;;;;;17.75;5.80;;;;;;;13.73;79.78;99690.16;5010152;28;20524;-35
2023/06/08 02:25:19;;;;;;;22.30;5.45;;;;;;;13.71;79.55;99691.97;5010150;28;20045;-35
2023/06/08 02:27:48;;;;;;;16.38;5.30;;;;;;;13.89;79.59;99714.63;5026526;28;20137;-35
2023/06/08 02:30:14;;;;;;;12.10;5.50;;;;;;;13.93;79.17;99717.94;4994172;28;20145;-35
2023/06/08 02:32:45;;;;;;;16.73;5.90;;;;;;;13.94;79.44;99722.25;5011290;28;20085;-35
2023/06/08 02:35:12;;;;;;;10.85;4.88;;;;;;;13.70;79.30;99673.78;5026542;28;20494;-36
2023/06/08 02:37:42;;;;;;;14.15;5.25;;;;;;;13.99;79.14;99717.66;5009880;28;20791;-36
2023/06/08 02:40:09;;;;;;;15.52;5.75;;;;;;;13.90;79.06;99691.97;5009617;28;20085;-36
2023/06/08 02:42:38;;;;;;;14.40;5.20;;;;;;;14.06;79.04;99724.28;5026276;28;20038;-36
2023/06/08 02:45:05;;;;;;;12.77;5.47;;;;;;;14.09;78.46;99721.53;5009625;28;20421;-35
2023/06/08 02:47:32;;;;;;;14.15;4.90;;;;;;;14.11;78.46;99716.22;4993636;28;20108;-41
2023/06/08 02:49:58;;;;;;;12.02;5.38;;;;;;;14.13;78.16;99725.69;4993810;28;20064;-36
2023/06/08 02:52:25;;;;;;;14.07;5.30;;;;;;;14.00;78.05;99694.06;5009507;28;20707;-36
2023/06/08 02:54:50;;;;;;;12.77;4.97;;;;;;;14.19;77.86;99725.38;5025989;28;20591;-36
2023/06/08 02:57:16;;;;;;;12.05;5.13;;;;;;;14.24;77.69;99726.00;5010643;28;20053;-36
2023/06/08 02:59:49;;;;;;;12.32;5.60;;;;;;;14.27;77.46;99722.41;5025950;28;20081;-36
2023/06/08 03:02:15;;;;;;;15.07;6.55;;;;;;;14.28;77.19;99730.19;5009508;28;20037;-36
2023/06/08 03:04:45;;;;;;;14.15;5.25;;;;;;;14.34;77.08;99729.88;4993272;28;20141;-36
2023/06/08 03:07:15;;;;;;;14.93;6.03;;;;;;;14.35;76.99;99731.56;4993056;28;20091;-36
2023/06/08 03:09:46;;;;;;;9.57;5.53;;;;;;;14.37;77.06;99723.69;4993954;28;20065;-36
2023/06/08 03:12:17;;;;;;;11.70;5.07;;;;;;;14.41;77.03;99726.06;5009148;28;20053;-35
2023/06/08 03:14:44;;;;;;;10.55;5.22;;;;;;;14.44;76.68;99727.69;5009199;28;20528;-36
2023/06/08 03:17:11;;;;;;;14.52;5.32;;;;;;;14.48;76.80;99731.00;5018027;28;20087;-36
2023/06/08 03:19:41;;;;;;;9.95;5.68;;;;;;;14.54;76.80;99735.94;5004539;28;20064;-37
2023/06/08 03:22:08;;;;;;;10.23;5.63;;;;;;;14.56;76.71;99739.31;5025510;28;20134;-35
2023/06/08 03:24:48;;;;;;;9.40;5.25;;;;;;;14.61;76.53;99739.94;4994345;28;20063;-36
2023/06/08 03:27:16;;;;;;;15.10;5.53;;;;;;;14.64;76.35;99729.31;4992556;28;20046;-36
2023/06/08 03:29:43;;;;;;;15.35;6.07;;;;;;;14.68;76.35;99734.31;4992352;28;20139;-36
2023/06/08 03:32:09;;;;;;;21.08;7.22;;;;;;;14.57;76.33;99710.47;5025515;28;20065;-35
2023/06/08 03:34:37;;;;;;;14.55;5.95;;;;;;;14.79;76.30;99747.72;5025319;28;20054;-36
2023/06/08 03:37:07;;;;;;;13.13;6.22;;;;;;;14.86;76.33;99744.78;5025519;28;20046;-36
2023/06/08 03:39:36;;;;;;;12.30;5.82;;;;;;;14.92;76.50;99739.22;5008651;28;20058;-35
2023/06/08 03:42:02;;;;;;;13.73;7.75;;;;;;;14.97;76.52;99748.53;5025264;28;20108;-35
2023/06/08 03:44:31;;;;;;;20.75;6.38;;;;;;;15.03;76.38;99752.63;5008950;28;20042;-36
2023/06/08 03:46:58;;;;;;;15.98;7.03;;;;;;;15.07;76.59;99743.69;5008671;28;20513;-36
2023/06/08 03:49:26;;;;;;;10.52;5.43;;;;;;;14.98;76.49;99729.28;5024901;28;20054;-36
2023/06/08 03:51:52;;;;;;;10.02;5.40;;;;;;;15.19;76.80;99751.75;5008575;28;20037;-35
2023/06/08 03:54:18;;;;;;;9.43;5.93;;;;;;;15.24;76.68;99752.34;5008433;28;20077;-37
2023/06/08 03:56:44;;;;;;;11.43;5.32;;;;;;;15.31;76.65;99755.50;5008394;28;20065;-36
2023/06/08 03:59:11;;;;;;;12.43;5.13;;;;;;;15.38;76.46;99756.03;5042909;28;20041;-35
2023/06/08 04:01:41;;;;;;;11.95;5.05;;;;;;;15.41;76.78;99743.59;5027843;28;20123;-36
2023/06/08 04:04:07;;;;;;;;;;;;;;;15.42;76.37;99739.22;5028315;28;20093;-35
2023/06/08 04:06:33;;;;;;;7.22;5.20;;;;;;;15.52;76.18;99750.94;5011282;28;19920;-36
2023/06/08 04:09:01;;;;;;;9.52;4.95;;;;;;;15.55;76.47;99756.84;5011752;28;20148;-36
2023/06/08 04:11:28;;;;;;;10.55;5.68;;;;;;;15.60;76.46;99753.97;5043680;28;20060;-36
2023/06/08 04:13:54;;;;;;;8.75;5.68;;;;;;;15.50;76.43;99737.88;5010070;28;20776;-35
2023/06/08 04:16:21;;;;;;;8.50;6.05;;;;;;;15.61;76.25;99750.44;5008327;28;20037;-36
2023/06/08 04:18:53;;;;;;;11.00;5.22;;;;;;;15.80;75.76;99761.63;5012709;28;20160;-37
2023/06/08 04:21:25;;;;;;;12.23;5.10;;;;;;;15.88;75.65;99769.06;5027801;28;20048;-36
2023/06/08 04:23:51;;;;;;;10.75;5.45;;;;;;;15.95;75.23;99765.19;5027683;28;20033;-36
2023/06/08 04:26:24;;;;;;;10.88;5.20;;;;;;;16.01;75.28;99770.09;5040713;28;20095;-38
2023/06/08 04:28:51;;;;;;;11.63;6.78;;;;;;;16.06;75.08;99762.81;5027096;28;20497;-37
2023/06/08 04:31:20;;;;;;;;;;;;;;;16.13;74.86;99758.06;5027474;28;20456;-36
2023/06/08 04:33:47;;;;;;;19.30;6.65;;;;;;;16.16;74.71;99766.63;5010449;28;20004;-35
2023/06/08 04:36:13;;;;;;;9.02;5.45;;;;;;;16.22;74.28;99763.66;5027141;28;20045;-37
2023/06/08 04:38:41;;;;;;;10.98;5.50;;;;;;;16.28;74.39;99765.06;5010768;28;20033;-36
2023/06/08 04:41:08;;;;;;;17.10;5.65;;;;;;;16.34;74.15;99762.09;5010590;28;20152;-35
2023/06/08 04:43:34;;;;;;;9.80;4.97;;;;;;;16.40;74.13;99759.97;5008672;28;20044;-35
2023/06/08 04:46:11;;;;;;;11.10;5.40;;;;;;;16.34;73.74;99738.50;5010911;28;20045;-36
2023/06/08 04:48:37;;;;;;;13.85;5.70;;;;;;;16.44;73.42;99739.66;5010671;28;20049;-36
2023/06/08 04:51:09;;;;;;;12.30;5.00;;;;;;;16.64;73.20;99767.44;5026964;28;20067;-37
2023/06/08 04:53:37;;;;;;;12.65;5.85;;;;;;;16.71;72.69;99763.50;5026900;28;20045;-36
2023/06/08 04:56:04;;;;;;;10.23;5.38;;;;;;;16.81;72.43;99767.28;4994108;28;20049;-36
2023/06/08 04:58:31;;;;;;;15.80;5.70;;;;;;;16.92;72.14;99764.88;5026257;28;20044;-36
2023/06/08 05:00:57;;;;;;;8.90;5.43;;;;;;;17.04;71.68;99765.94;5027088;28;20477;-36
2023/06/08 05:03:25;;;;;;;13.75;5.60;;;;;;;17.11;71.06;99768.13;5010949;28;20033;-35
2023/06/08 05:05:51;;;;;;;11.10;6.13;;;;;;;17.21;70.83;99768.41;5043723;28;20048;-36
2023/06/08 05:08:17;;;;;;;15.88;5.30;;;;;;;17.12;70.00;99746.13;5027927;28;20124;-36
2023/06/08 05:10:43;;;;;;;8.93;5.32;;;;;;;17.29;69.19;99767.00;5027168;28;20436;-36
2023/06/08 05:13:09;;;;;;;8.45;5.18;;;;;;;17.34;69.15;99772.81;5027194;28;20061;-36
2023/06/08 05:15:37;;;;;;;15.88;5.50;;;;;;;17.44;68.65;99769.63;5027238;28;20405;-37
2023/06/08 05:18:03;;;;;;;13.48;5.05;;;;;;;17.57;68.27;99776.69;5007486;28;20091;-36
2023/06/08 05:20:29;;;;;;;9.43;5.60;;;;;;;17.64;67.88;99764.84;5022367;28;20473;-37
2023/06/08 05:22:56;;;;;;;10.18;5.75;;;;;;;17.76;67.55;99774.63;5025465;28;20136;-38
2023/06/08 05:25:22;;;;;;;12.18;5.55;;;;;;;17.87;67.17;99783.63;5019376;28;20428;-37
2023/06/08 05:27:47;;;;;;;7.68;4.72;;;;;;;17.96;66.32;99777.78;5010665;28;20072;-36
2023/06/08 05:30:13;;;;;;;11.13;4.78;;;;;;;18.07;65.32;99781.44;5027929;28;20073;-36
2023/06/08 05:32:39;;;;;;;17.30;5.13;;;;;;;18.16;64.75;99777.38;5028401;28;20037;-36
2023/06/08 05:35:05;;;;;;;11.20;5.60;;;;;;;18.31;64.10;99784.28;5018975;28;20517;-36
2023/06/08 05:37:31;;;;;;;10.25;4.18;;;;;;;18.30;63.48;99765.97;5018961;28;20224;-37
2023/06/08 05:39:58;;;;;;;10.40;4.53;;;;;;;18.55;62.57;99790.63;5010054;28;20079;-36
2023/06/08 05:42:24;;;;;;;9.60;4.80;;;;;;;18.66;61.90;99783.81;5028115;28;20517;-37
2023/06/08 05:44:50;;;;;;;9.20;5.22;;;;;;;18.80;61.30;99781.94;5030592;28;20080;-36
2023/06/08 05:47:16;;;;;;;12.43;4.78;;;;;;;18.92;59.94;99780.28;5014537;28;20037;-36
2023/06/08 05:49:42;;;;;;;10.95;5.32;;;;;;;19.05;59.25;99783.78;5031070;28;20037;-36
2023/06/08 05:52:08;;;;;;;8.95;4.15;;;;;;;19.17;58.53;99787.38;5029569;28;20033;-36
2023/06/08 05:54:34;;;;;;;8.27;3.83;;;;;;;19.29;57.39;99783.91;5030435;28;20124;-36
2023/06/08 05:57:01;;;;;;;5.68;3.25;;;;;;;19.40;55.88;99786.66;5032067;28;20053;-35
2023/06/08 05:59:27;;;;;;;7.53;3.53;;;;;;;19.48;54.39;99778.22;5031895;28;20037;-37
2023/06/08 06:01:53;;;;;;;6.80;3.70;;;;;;;19.67;53.79;99781.28;5031827;28;20068;-36
2023/06/08 06:04:19;;;;;;;7.45;4.10;;;;;;;19.94;53.55;99783.78;5031264;28;20034;-36
2023/06/08 06:06:45;;;;;;;8.00;3.75;;;;;;;20.18;53.09;99789.94;5011696;28;20052;-37
2023/06/08 06:09:11;;;;;;;6.07;3.20;;;;;;;20.29;52.05;99782.94;5012314;28;20496;-37
2023/06/08 06:11:38;;;;;;;6.47;2.80;;;;;;;20.33;50.31;99769.50;5010867;28;20137;-36
2023/06/08 06:14:04;;;;;;;5.00;3.00;;;;;;;20.55;49.22;99780.19;5010520;28;20052;-37
2023/06/08 06:16:30;;;;;;;5.22;2.80;;;;;;;20.66;48.21;99781.09;5014005;28;20045;-36
2023/06/08 06:18:57;;;;;;;5.25;2.45;;;;;;;20.77;47.07;99777.66;5030304;28;20057;-36
2023/06/08 06:21:23;;;;;;;4.68;2.60;;;;;;;20.70;45.84;99774.63;5031561;28;20045;-36
2023/06/08 06:23:50;;;;;;;5.65;2.78;;;;;;;20.69;45.32;99775.56;5046810;28;20178;-37
2023/06/08 06:26:15;;;;;;;7.32;3.00;;;;;;;20.73;45.13;99780.66;5030136;28;20131;-36
2023/06/08 06:28:41;;;;;;;9.32;2.80;;;;;;;20.96;45.17;99772.66;5030382;28;20136;-37
2023/06/08 06:31:07;;;;;;;8.18;2.55;;;;;;;21.20;44.81;99771.78;5030133;28;20064;-37
2023/06/08 06:33:33;;;;;;;5.70;2.53;;;;;;;21.39;44.57;99766.75;5031035;28;20081;-36
2023/06/08 06:35:59;;;;;;;5.68;2.97;;;;;;;21.77;44.07;99780.47;5029835;28;20037;-36
2023/06/08 06:38:26;;;;;;;5.05;2.60;;;;;;;22.28;43.02;99780.81;5030047;28;20054;-36
2023/06/08 06:40:52;;;;;;;11.60;2.70;;;;;;;22.77;41.01;99755.56;5029815;28;20057;-36
2023/06/08 06:43:21;;;;;;;7.72;3.20;;;;;;;23.87;38.73;99776.16;5029814;28;20095;-37
2023/06/08 06:45:53;;;;;;;7.85;2.90;;;;;;;24.99;36.86;99779.31;5031213;28;20038;-37
2023/06/08 06:48:22;;;;;;;19.13;6.15;;;;;;;26.14;34.75;99780.75;5029850;28;20041;-37
2023/06/08 06:50:48;;;;;;;5.25;2.15;;;;;;;27.15;33.83;99782.25;5031155;28;20580;-36
2023/06/08 06:53:14;;;;;;;5.20;2.83;;;;;;;27.87;31.97;99781.03;5031034;28;20049;-36
2023/06/08 06:55:40;;;;;;;3.95;2.30;;;;;;;28.90;30.83;99789.50;5028680;28;20421;-36
2023/06/08 06:58:07;;;;;;;4.20;2.58;;;;;;;29.79;29.92;99796.56;5029742;28;20045;-37
2023/06/08 07:00:37;;;;;;;5.15;3.50;;;;;;;30.71;28.87;99802.00;5029652;28;20190;-37
2023/06/08 07:03:09;;;;;;;4.55;2.88;;;;;;;31.85;27.45;99804.50;5030707;28;20059;-38
2023/06/08 07:05:36;;;;;;;6.15;2.92;;;;;;;32.76;26.19;99808.53;5019675;28;20056;-38
2023/06/08 07:08:02;;;;;;;3.45;2.35;;;;;;;33.16;24.38;99801.63;5011086;28;20041;-37
2023/06/08 07:10:29;;;;;;;3.97;2.60;;;;;;;33.22;24.29;99802.72;5010877;28;20042;-37
2023/06/08 07:12:56;;;;;;;3.88;2.38;;;;;;;33.57;23.30;99801.72;5022509;28;20655;-37
2023/06/08 07:15:22;;;;;;;6.75;2.85;;;;;;;33.71;22.47;99773.81;5030475;28;20130;-36
2023/06/08 07:17:50;;;;;;;5.22;2.53;;;;;;;34.73;21.71;99806.22;5029117;28;20501;-35
2023/06/08 07:20:15;;;;;;;5.28;2.60;;;;;;;35.53;21.04;99803.34;5045918;28;20081;-37
2023/06/08 07:22:41;;;;;;;4.28;2.40;;;;;;;36.10;20.85;99801.72;5030602;28;20065;-36
2023/06/08 07:25:07;;;;;;;3.97;2.20;;;;;;;35.76;19.81;99792.06;5030391;28;20127;-36
2023/06/08 07:27:33;;;;;;;5.85;2.45;;;;;;;35.78;19.98;99787.28;5030466;28;20037;-36
2023/06/08 07:29:58;;;;;;;4.55;2.42;;;;;;;36.58;19.51;99788.59;5030242;28;20486;-36
2023/06/08 07:32:26;;;;;;;2.95;2.60;;;;;;;37.09;18.94;99785.75;5028900;28;20176;-37
2023/06/08 07:34:52;;;;;;;4.68;2.65;;;;;;;37.71;18.72;99795.59;5029054;28;20428;-38
2023/06/08 07:37:18;;;;;;;3.50;2.72;;;;;;;38.42;18.31;99781.31;5029268;28;20105;-37
2023/06/08 07:39:44;;;;;;;5.78;3.00;;;;;;;38.92;18.01;99792.75;5028796;28;20464;-36
2023/06/08 07:42:10;;;;;;;5.35;2.70;;;;;;;38.71;17.82;99798.72;5029037;28;20037;-37
2023/06/08 07:44:35;;;;;;;6.05;2.83;;;;;;;37.38;18.73;99789.63;5028703;28;20120;-37
2023/06/08 07:47:01;;;;;;;6.45;4.22;;;;;;;36.53;19.90;99786.50;5028728;28;20080;-37
2023/06/08 07:49:30;;;;;;;8.57;4.45;;;;;;;37.52;18.85;99793.91;5028657;28;20041;-37
2023/06/08 07:51:56;;;;;;;5.22;2.60;;;;;;;38.33;18.08;99793.59;5012314;28;20428;-36
2023/06/08 07:54:24;;;;;;;4.45;2.53;;;;;;;38.32;18.07;99791.09;5028635;28;20518;-37
2023/06/08 07:56:50;;;;;;;4.07;2.90;;;;;;;36.25;19.61;99791.47;5012129;28;20044;-37
2023/06/08 07:59:16;;;;;;;4.18;2.60;;;;;;;34.22;21.08;99782.41;5029894;28;20359;-37
2023/06/08 08:01:42;;;;;;;5.30;3.10;;;;;;;32.86;22.55;99782.09;5012156;28;20041;-37
2023/06/08 08:04:08;;;;;;;5.47;2.58;;;;;;;34.44;21.86;99765.00;5028406;28;20527;-37
2023/06/08 08:06:34;;;;;;;4.35;2.60;;;;;;;36.19;19.45;99764.44;4992321;28;20049;-36
2023/06/08 08:09:00;;;;;;;3.65;2.83;;;;;;;37.75;18.57;99768.81;5009965;28;20536;-37
2023/06/08 08:11:27;;;;;;;5.15;2.90;;;;;;;38.52;17.87;99787.06;5008266;28;20053;-36
2023/06/08 08:13:54;;;;;;;3.20;2.88;;;;;;;38.92;17.66;99786.50;5009812;28;20042;-38
2023/06/08 08:16:20;;;;;;;7.60;3.10;;;;;;;39.31;17.26;99750.41;5012034;28;20042;-37
2023/06/08 08:18:46;;;;;;;7.30;3.03;;;;;;;39.55;17.51;99781.22;5028401;28;20544;-37
2023/06/08 08:21:12;;;;;;;7.05;3.15;;;;;;;40.26;16.52;99777.28;5028194;28;20045;-37
2023/06/08 08:23:39;;;;;;;5.07;3.03;;;;;;;40.24;15.84;99782.16;5028167;28;20505;-36
2023/06/08 08:26:06;;;;;;;3.92;2.85;;;;;;;39.78;15.99;99777.66;5028079;28;20190;-37
2023/06/08 08:28:33;;;;;;;5.70;2.80;;;;;;;39.42;16.66;99778.72;5028095;28;20512;-37
2023/06/08 08:30:59;;;;;;;3.85;2.60;;;;;;;39.72;15.95;99784.03;5029158;28;20041;-36
2023/06/08 08:33:26;;;;;;;4.97;2.60;;;;;;;40.05;16.29;99778.75;5027695;28;20033;-36
2023/06/08 08:35:52;;;;;;;7.30;2.95;;;;;;;39.29;16.27;99777.06;5027254;28;20041;-36
2023/06/08 08:38:18;;;;;;;4.65;2.78;;;;;;;37.72;16.65;99769.28;5029134;28;20037;-36
2023/06/08 08:40:44;;;;;;;8.73;3.35;;;;;;;35.59;18.36;99766.50;5027660;28;20539;-37
2023/06/08 08:43:15;;;;;;;3.13;2.75;;;;;;;35.52;19.27;99773.78;5028013;28;20060;-38
2023/06/08 08:45:43;;;;;;;3.58;2.70;;;;;;;36.71;18.05;99772.25;5028943;28;20041;-37
2023/06/08 08:48:13;;;;;;;6.93;2.85;;;;;;;37.66;17.49;99773.72;5027604;28;20147;-37
2023/06/08 08:50:38;;;;;;;;;;;;;;;37.09;18.06;99765.94;5044335;28;20048;-37
2023/06/08 08:53:06;;;;;;;4.65;2.88;;;;;;;35.58;19.45;99749.44;5011071;28;20380;-37
2023/06/08 08:55:37;;;;;;;;;;;;;;;34.57;20.10;99769.59;5029198;28;20045;-37
2023/06/08 08:58:03;;;;;;;3.20;2.78;;;;;;;33.55;21.29;99768.75;5027270;28;19917;-36
2023/06/08 09:00:33;;;;;;;6.55;3.40;;;;;;;34.39;20.79;99767.47;4994205;28;20410;-37
2023/06/08 09:03:02;;;;;;;4.40;3.08;;;;;;;36.24;18.85;99759.19;5028475;28;20029;-37
2023/06/08 09:05:27;;;;;;;3.03;2.60;;;;;;;38.10;17.60;99764.47;5017224;28;20046;-37
2023/06/08 09:07:57;;;;;;;4.95;3.03;;;;;;;39.12;16.65;99758.94;5008973;28;20586;-37
2023/06/08 09:10:25;;;;;;;7.82;3.20;;;;;;;39.67;16.46;99757.53;5008877;28;20046;-37
2023/06/08 09:12:53;;;;;;;3.00;2.70;;;;;;;39.62;16.45;99740.25;4975143;28;20092;-37
2023/06/08 09:15:27;;;;;;;2.97;2.70;;;;;;;40.26;15.52;99763.63;5008633;28;20069;-37
2023/06/08 09:17:57;;;;;;;3.58;2.72;;;;;;;40.12;15.45;99757.63;5022553;28;20516;-38
2023/06/08 09:20:33;;;;;;;3.55;2.80;;;;;;;39.12;15.86;99746.19;5043455;28;20489;-37
2023/06/08 09:23:17;;;;;;;4.37;2.70;;;;;;;40.00;14.91;99753.28;5010569;28;20067;-37
2023/06/08 09:25:46;;;;;;;6.88;2.85;;;;;;;40.20;14.52;99748.25;5026964;28;20424;-37
2023/06/08 09:28:22;;;;;;;7.15;3.50;;;;;;;40.66;14.66;99744.50;5028313;28;20500;-37
2023/06/08 09:30:51;;;;;;;5.03;4.43;;;;;;;41.92;14.35;99739.28;5028042;28;20041;-37
2023/06/08 09:33:24;;;;;;;5.05;2.70;;;;;;;41.71;13.36;99740.91;5026869;28;20044;-39
2023/06/08 09:35:57;;;;;;;4.13;2.85;;;;;;;41.84;13.97;99738.63;5026963;28;20034;-37
2023/06/08 09:38:28;;;;;;;3.42;3.13;;;;;;;42.55;13.75;99741.34;5027140;28;20470;-37
2023/06/08 09:41:16;;;;;;;3.30;3.00;;;;;;;41.40;13.29;99731.47;5026880;28;20179;-36
2023/06/08 09:43:44;;;;;;;3.92;3.00;;;;;;;42.00;13.81;99725.97;5026850;28;20037;-37
2023/06/08 09:46:16;;;;;;;3.67;3.25;;;;;;;43.02;13.97;99733.25;5026792;28;20045;-36
2023/06/08 09:48:56;;;;;;;3.50;3.20;;;;;;;43.77;13.34;99740.25;5027001;28;20468;-37
2023/06/08 09:51:23;;;;;;;6.95;4.50;;;;;;;43.69;13.59;99741.59;5026768;28;20045;-37
2023/06/08 09:53:57;;;;;;;3.45;3.15;;;;;;;42.73;13.82;99723.72;5026514;28;20056;-36
2023/06/08 09:56:27;;;;;;;5.97;3.50;;;;;;;43.30;13.41;99718.38;5027981;28;20095;-37
2023/06/08 09:58:57;;;;;;;5.25;3.30;;;;;;;44.08;13.09;99730.22;5028164;28;20433;-37
2023/06/08 10:01:48;;;;;;;3.92;2.67;;;;;;;44.27;12.70;99732.25;5043452;28;20037;-36
2023/06/08 10:04:26;;;;;;;3.30;3.00;;;;;;;44.16;12.36;99727.78;5027588;28;20046;-36
2023/06/08 10:06:57;;;;;;;6.60;3.45;;;;;;;44.24;12.64;99713.53;5006807;28;20160;-36
2023/06/08 10:09:27;;;;;;;4.00;3.20;;;;;;;44.58;12.21;99729.50;5006979;28;20041;-37
2023/06/08 10:11:55;;;;;;;8.40;3.67;;;;;;;44.97;11.91;99725.09;5008270;28;20053;-37
2023/06/08 10:14:23;;;;;;;5.07;4.68;;;;;;;45.16;11.55;99724.56;5006590;28;20033;-37
2023/06/08 10:16:49;;;;;;;4.07;3.70;;;;;;;45.24;11.51;99718.47;5009011;28;20120;-36
2023/06/08 10:19:17;;;;;;;6.13;5.53;;;;;;;45.37;11.32;99710.50;4990089;28;20482;-36
2023/06/08 10:21:44;;;;;;;3.78;3.35;;;;;;;44.87;11.93;99711.41;5007850;28;20048;-36
2023/06/08 10:24:10;;;;;;;3.90;3.57;;;;;;;44.72;11.96;99698.53;5009753;28;20602;-38
2023/06/08 10:26:36;;;;;;;4.00;3.30;;;;;;;45.00;11.86;99682.56;5026416;28;20041;-38
2023/06/08 10:29:08;;;;;;;3.83;3.53;;;;;;;45.55;11.57;99706.31;5028584;28;20041;-37
2023/06/08 10:31:37;;;;;;;4.40;3.22;;;;;;;45.03;11.64;99703.97;5029984;28;20115;-37
2023/06/08 10:34:12;;;;;;;2.88;2.53;;;;;;;42.26;12.59;99692.34;5029805;28;20037;-37
2023/06/08 10:36:39;;;;;;;6.60;3.25;;;;;;;42.47;12.86;99692.56;5013376;28;20068;-37
2023/06/08 10:39:10;;;;;;;4.20;2.60;;;;;;;43.10;12.98;99699.94;5013120;28;20064;-37
2023/06/08 10:41:45;;;;;;;12.82;4.00;;;;;;;41.20;14.16;99688.34;5012866;28;20394;-37
2023/06/08 10:44:24;;;;;;;3.90;2.92;;;;;;;41.24;13.84;99688.69;5029696;28;20215;-38
2023/06/08 10:46:55;;;;;;;3.53;2.50;;;;;;;40.92;13.95;99686.56;5029285;28;20056;-37
2023/06/08 10:49:21;;;;;;;3.60;2.88;;;;;;;39.67;14.67;99677.75;5046220;28;20033;-37
2023/06/08 10:51:53;;;;;;;4.47;2.88;;;;;;;40.81;13.84;99659.38;5029626;28;20433;-37
2023/06/08 10:54:25;;;;;;;4.03;3.03;;;;;;;42.35;13.05;99676.34;5030764;28;20045;-37
2023/06/08 10:56:54;;;;;;;5.03;3.33;;;;;;;43.56;12.56;99678.25;5029455;28;20053;-37
2023/06/08 10:59:37;;;;;;;7.35;4.57;;;;;;;44.43;12.27;99678.22;5029668;28;20513;-36
2023/06/08 11:02:04;;;;;;;6.25;3.88;;;;;;;44.61;12.13;99679.56;5045900;28;20041;-37
2023/06/08 11:04:32;;;;;;;8.30;4.00;;;;;;;45.14;11.79;99675.41;5027123;28;20041;-36
2023/06/08 11:07:02;;;;;;;5.30;3.60;;;;;;;43.46;12.44;99652.47;5009751;28;20042;-36
2023/06/08 11:09:33;;;;;;;4.50;3.53;;;;;;;42.92;12.41;99664.78;4977154;28;20052;-37
2023/06/08 11:12:03;;;;;;;5.97;2.85;;;;;;;41.66;13.29;99658.94;5009687;28;20049;-36
2023/06/08 11:14:29;;;;;;;7.85;2.78;;;;;;;41.42;14.01;99671.97;5010812;28;20049;-37
2023/06/08 11:16:56;;;;;;;5.15;3.03;;;;;;;39.68;14.18;99661.16;5016114;28;20051;-35
2023/06/08 11:19:23;;;;;;;5.15;2.90;;;;;;;39.53;14.50;99657.28;5012687;28;20067;-37
2023/06/08 11:21:55;;;;;;;3.17;2.88;;;;;;;41.17;13.81;99661.56;5012629;28;20064;-36
2023/06/08 11:24:28;;;;;;;7.15;2.75;;;;;;;41.51;13.65;99653.28;5028872;28;20411;-37
2023/06/08 11:27:01;;;;;;;8.10;6.68;;;;;;;41.54;13.74;99653.59;5012499;28;20501;-36
2023/06/08 11:29:27;;;;;;;12.30;9.70;;;;;;;42.51;12.81;99649.94;5028917;28;20060;-38
2023/06/08 11:31:54;;;;;;;3.72;3.20;;;;;;;41.19;13.52;99653.13;5030154;28;20408;-36
2023/06/08 11:34:21;;;;;;;3.88;3.50;;;;;;;40.41;13.71;99615.94;5030157;28;20044;-37
2023/06/08 11:36:49;;;;;;;3.38;3.08;;;;;;;39.90;13.58;99633.25;5028804;28;20045;-36